Time;durP1;ratioP1;P1;durP2;ratioP2;P2;SDS_P1;SDS_P2;PMS_P1;PMS_P2;Temp;Humidity;BMP_temperature;BMP_pressure;BME280_temperature;BME280_humidity;BME280_pressure;Samples;Min_cycle;Max_cycle;Signal;HPM_P1;HPM_P2
2023/01/06 00:00:44;;;;;;;6.00;2.20;;;10.90;99.90;;;;;;5094508;28;20689;-60
2023/01/06 00:03:11;;;;;;;6.70;2.90;;;10.90;99.90;;;;;;5095161;28;20200;-60
2023/01/06 00:05:38;;;;;;;5.33;2.13;;;10.90;99.90;;;;;;5093917;28;20295;-60
2023/01/06 00:08:04;;;;;;;8.17;2.27;;;10.90;99.90;;;;;;5089274;28;20213;-60
2023/01/06 00:10:31;;;;;;;3.47;2.37;;;10.90;99.90;;;;;;5091927;28;20564;-60
2023/01/06 00:12:58;;;;;;;3.43;1.90;;;10.80;99.90;;;;;;5100096;28;20201;-60
2023/01/06 00:15:25;;;;;;;7.77;2.47;;;10.80;99.90;;;;;;5093322;28;20201;-60
2023/01/06 00:17:52;;;;;;;4.33;2.60;;;10.80;99.90;;;;;;5097895;28;20683;-60
2023/01/06 00:20:18;;;;;;;6.23;2.73;;;10.80;99.90;;;;;;5100052;28;20208;-60
2023/01/06 00:22:45;;;;;;;4.27;3.10;;;10.80;99.90;;;;;;5098061;28;20247;-60
2023/01/06 00:25:12;;;;;;;7.87;2.47;;;10.80;99.90;;;;;;5080391;28;20289;-60
2023/01/06 00:27:39;;;;;;;6.53;3.10;;;10.80;99.90;;;;;;5097913;28;20234;-60
2023/01/06 00:30:06;;;;;;;4.30;2.57;;;10.80;99.90;;;;;;5097232;28;20270;-60
2023/01/06 00:32:34;;;;;;;5.87;2.60;;;10.80;99.90;;;;;;5078795;28;20220;-60
2023/01/06 00:35:02;;;;;;;6.50;3.07;;;10.80;99.90;;;;;;5097875;28;20271;-60
2023/01/06 00:37:28;;;;;;;6.57;2.90;;;10.80;99.90;;;;;;5064305;28;20210;-60
2023/01/06 00:39:55;;;;;;;9.37;2.43;;;10.90;99.90;;;;;;5096805;28;20296;-60
2023/01/06 00:42:23;;;;;;;4.53;2.77;;;10.90;99.90;;;;;;5100369;28;20212;-60
2023/01/06 00:44:50;;;;;;;6.63;2.50;;;10.90;99.90;;;;;;5091960;28;20671;-61
2023/01/06 00:47:18;;;;;;;2.97;2.17;;;10.90;99.90;;;;;;5098376;28;20216;-60
2023/01/06 00:49:45;;;;;;;5.50;2.37;;;10.90;99.90;;;;;;5097701;28;20212;-62
2023/01/06 00:52:13;;;;;;;5.17;2.00;;;10.90;99.90;;;;;;5097224;28;20673;-60
2023/01/06 00:54:41;;;;;;;2.40;1.93;;;11.00;99.90;;;;;;5095771;28;20295;-60
2023/01/06 00:57:09;;;;;;;5.10;2.27;;;11.00;99.90;;;;;;5097735;28;20209;-60
2023/01/06 00:59:36;;;;;;;3.73;1.67;;;11.00;99.90;;;;;;5093854;28;20201;-60
2023/01/06 01:02:03;;;;;;;5.67;2.07;;;11.00;99.90;;;;;;5073619;28;20302;-60
2023/01/06 01:04:30;;;;;;;7.03;1.90;;;11.00;99.90;;;;;;5097713;28;21024;-60
2023/01/06 01:06:57;;;;;;;3.13;1.80;;;11.00;99.90;;;;;;5094679;28;20228;-60
2023/01/06 01:09:28;;;;;;;2.57;1.60;;;11.00;99.90;;;;;;5077746;28;20213;-60
2023/01/06 01:14:52;;;;;;;5.33;1.43;;;11.00;99.90;;;;;;5071039;28;20598;-60
2023/01/06 01:17:28;;;;;;;4.37;1.40;;;11.00;99.90;;;;;;5090011;28;20286;-60
2023/01/06 01:19:56;;;;;;;3.97;1.50;;;11.00;99.90;;;;;;5095921;28;20504;-60
2023/01/06 01:22:25;;;;;;;2.40;1.30;;;11.00;99.90;;;;;;5095009;28;20669;-60
2023/01/06 01:24:52;;;;;;;2.90;1.33;;;11.00;99.90;;;;;;5091412;28;20202;-60
2023/01/06 01:27:19;;;;;;;4.53;1.80;;;11.10;99.90;;;;;;5095424;28;20301;-63
2023/01/06 01:29:46;;;;;;;3.23;1.43;;;11.00;99.90;;;;;;5072292;28;20225;-61
2023/01/06 01:32:13;;;;;;;2.23;1.23;;;11.00;99.90;;;;;;5094539;28;21028;-60
2023/01/06 01:34:39;;;;;;;2.93;1.60;;;11.10;99.90;;;;;;5098644;28;20277;-60
2023/01/06 01:37:09;;;;;;;4.07;1.33;;;11.10;99.90;;;;;;5073250;28;20237;-60
2023/01/06 01:39:36;;;;;;;3.73;1.40;;;11.10;99.90;;;;;;5090196;28;20205;-60
2023/01/06 01:42:03;;;;;;;3.07;1.20;;;11.10;99.90;;;;;;5098984;28;20641;-59
2023/01/06 01:44:49;;;;;;;6.60;1.73;;;11.00;99.90;;;;;;5097570;28;20213;-60
2023/01/06 01:47:46;;;;;;;6.47;1.77;;;11.00;99.90;;;;;;5098941;28;20288;-60
2023/01/06 01:50:21;;;;;;;4.83;1.23;;;11.10;99.90;;;;;;5096638;28;20590;-60
2023/01/06 01:52:51;;;;;;;3.83;1.33;;;11.00;99.90;;;;;;5099309;28;20621;-60
2023/01/06 01:55:19;;;;;;;2.77;1.17;;;11.00;99.90;;;;;;5098018;28;20671;-60
2023/01/06 01:58:14;;;;;;;2.93;1.37;;;11.00;99.90;;;;;;5097066;28;20567;-63
2023/01/06 02:00:43;;;;;;;4.50;1.00;;;11.00;99.90;;;;;;5096132;28;20256;-60
2023/01/06 02:03:12;;;;;;;4.77;1.30;;;11.00;99.90;;;;;;5095986;28;20237;-60
2023/01/06 02:05:43;;;;;;;3.40;1.07;;;11.00;99.90;;;;;;5059701;28;20217;-60
2023/01/06 02:08:31;;;;;;;3.70;1.13;;;11.10;99.90;;;;;;5091051;28;20267;-60
2023/01/06 02:10:58;;;;;;;6.33;1.33;;;11.10;99.90;;;;;;5090132;28;20229;-60
2023/01/06 02:13:26;;;;;;;4.93;1.30;;;11.10;99.90;;;;;;5077824;28;20298;-60
2023/01/06 02:16:09;;;;;;;2.43;1.10;;;11.10;99.90;;;;;;5098365;28;20584;-60
2023/01/06 02:19:03;;;;;;;4.17;1.43;;;11.10;99.90;;;;;;5095678;28;20217;-61
2023/01/06 02:21:51;;;;;;;2.20;1.00;;;11.10;99.90;;;;;;5092817;28;20298;-61
2023/01/06 02:24:34;;;;;;;3.17;1.27;;;11.10;99.90;;;;;;5098909;28;20202;-60
2023/01/06 02:27:15;;;;;;;2.93;1.00;;;11.10;99.90;;;;;;5097083;28;20208;-60
2023/01/06 02:30:15;;;;;;;3.60;1.23;;;11.10;99.90;;;;;;5095421;28;20305;-61
2023/01/06 02:33:09;;;;;;;3.13;0.90;;;11.10;99.90;;;;;;5098246;28;20202;-60
2023/01/06 02:35:53;;;;;;;3.00;1.07;;;11.10;99.90;;;;;;5097739;28;20227;-61
2023/01/06 02:38:38;;;;;;;3.87;0.90;;;11.10;99.90;;;;;;5076189;28;20304;-60
2023/01/06 02:41:07;;;;;;;2.17;1.03;;;11.10;99.90;;;;;;5098302;28;20297;-60
2023/01/06 02:44:02;;;;;;;1.97;0.80;;;11.10;99.90;;;;;;5096726;28;20197;-60
2023/01/06 02:46:42;;;;;;;3.03;1.13;;;11.10;99.90;;;;;;5095628;28;20284;-61
2023/01/06 02:49:40;;;;;;;1.70;0.90;;;11.10;99.90;;;;;;5074870;28;20335;-61
2023/01/06 02:52:16;;;;;;;3.13;0.60;;;11.10;99.90;;;;;;5090953;28;20191;-60
2023/01/06 02:55:01;;;;;;;3.00;0.90;;;11.10;99.90;;;;;;5091796;28;20197;-60
2023/01/06 02:57:51;;;;;;;3.47;0.83;;;11.10;99.90;;;;;;5092880;28;20230;-60
2023/01/06 03:00:31;;;;;;;1.27;0.80;;;11.10;99.90;;;;;;5091956;28;20224;-60
2023/01/06 03:03:03;;;;;;;1.57;0.90;;;11.10;99.90;;;;;;5074145;28;20320;-61
2023/01/06 03:05:33;;;;;;;1.87;0.80;;;11.10;99.90;;;;;;5090294;28;20198;-62
2023/01/06 03:08:03;;;;;;;3.17;0.77;;;11.10;99.90;;;;;;5088639;28;20556;-60
2023/01/06 03:10:31;;;;;;;2.07;0.80;;;11.10;99.90;;;;;;5077652;28;20230;-60
2023/01/06 03:13:07;;;;;;;3.77;0.97;;;11.10;99.90;;;;;;5092660;28;20257;-60
2023/01/06 03:15:34;;;;;;;3.03;0.63;;;11.10;99.90;;;;;;5092045;28;20204;-61
2023/01/06 03:18:02;;;;;;;2.90;0.87;;;11.10;99.90;;;;;;5092327;28;20294;-60
2023/01/06 03:20:28;;;;;;;3.80;0.77;;;11.10;99.90;;;;;;5087759;28;20199;-61
2023/01/06 03:22:55;;;;;;;2.83;0.70;;;11.10;99.90;;;;;;5090201;28;21152;-61
2023/01/06 03:25:22;;;;;;;2.57;0.97;;;11.10;99.90;;;;;;5091913;28;20206;-59
2023/01/06 03:27:49;;;;;;;1.27;0.80;;;11.10;99.90;;;;;;5091025;28;20316;-60
2023/01/06 03:30:17;;;;;;;1.90;0.77;;;11.10;99.90;;;;;;5095189;28;20247;-61
2023/01/06 03:33:05;;;;;;;2.70;0.90;;;11.10;99.90;;;;;;5096336;28;20226;-59
2023/01/06 03:35:37;;;;;;;3.43;0.80;;;11.10;99.90;;;;;;5072742;28;20274;-62
2023/01/06 03:38:06;;;;;;;1.30;0.80;;;11.10;99.90;;;;;;5094076;28;20241;-61
2023/01/06 03:40:50;;;;;;;1.00;0.63;;;11.10;99.90;;;;;;5091188;28;20568;-61
2023/01/06 03:43:43;;;;;;;4.70;1.20;;;11.10;99.90;;;;;;5094403;28;20221;-60
2023/01/06 03:46:22;;;;;;;3.63;1.10;;;11.10;99.90;;;;;;5091241;28;20238;-60
2023/01/06 03:49:01;;;;;;;1.97;1.00;;;11.10;99.90;;;;;;5079073;28;20231;-60
2023/01/06 03:52:06;;;;;;;4.20;1.00;;;11.10;99.90;;;;;;5094425;28;20296;-60
2023/01/06 03:54:56;;;;;;;2.20;0.90;;;11.10;99.90;;;;;;5095302;28;20198;-60
2023/01/06 03:57:27;;;;;;;3.70;1.00;;;11.10;99.90;;;;;;5093109;28;20202;-60
2023/01/06 04:00:03;;;;;;;2.83;0.90;;;11.10;99.90;;;;;;5079305;28;20230;-60
2023/01/06 04:02:31;;;;;;;2.47;0.80;;;11.10;99.90;;;;;;5095368;28;20782;-60
2023/01/06 04:05:14;;;;;;;2.97;0.80;;;11.10;99.90;;;;;;5094944;28;20300;-60
2023/01/06 04:07:41;;;;;;;3.77;1.20;;;11.10;99.90;;;;;;5089730;28;20201;-60
2023/01/06 04:10:10;;;;;;;2.53;1.13;;;11.10;99.90;;;;;;5097881;28;20217;-60
2023/01/06 04:12:39;;;;;;;2.37;0.90;;;11.10;99.90;;;;;;5077648;28;20190;-60
2023/01/06 04:15:10;;;;;;;1.93;1.13;;;11.10;99.90;;;;;;5095219;28;20198;-60
2023/01/06 04:17:38;;;;;;;1.77;0.70;;;11.10;99.90;;;;;;5096844;28;20201;-62
2023/01/06 04:20:08;;;;;;;4.43;0.60;;;11.00;99.90;;;;;;5098787;28;20206;-60
2023/01/06 04:22:35;;;;;;;3.33;0.70;;;11.10;99.90;;;;;;5096374;28;20581;-61
2023/01/06 04:25:02;;;;;;;2.07;0.77;;;11.00;99.90;;;;;;5098115;28;20221;-59
2023/01/06 04:27:29;;;;;;;1.00;0.80;;;11.00;99.90;;;;;;5097118;28;20216;-60
2023/01/06 04:29:56;;;;;;;2.20;0.60;;;11.10;99.90;;;;;;5099264;28;20313;-60
2023/01/06 04:32:23;;;;;;;1.37;0.67;;;11.10;99.90;;;;;;5094674;28;20197;-60
2023/01/06 04:34:50;;;;;;;2.60;1.10;;;11.10;99.90;;;;;;5079848;28;20708;-60
2023/01/06 04:37:17;;;;;;;2.53;0.80;;;11.00;99.90;;;;;;5095465;28;20267;-61
2023/01/06 04:39:46;;;;;;;4.10;1.40;;;11.00;99.90;;;;;;5096481;28;20238;-60
2023/01/06 04:42:13;;;;;;;2.00;0.60;;;11.00;99.90;;;;;;5098151;28;20209;-61
2023/01/06 04:44:41;;;;;;;2.90;0.80;;;11.10;99.90;;;;;;5095299;28;20203;-60
2023/01/06 04:47:09;;;;;;;1.07;0.90;;;11.10;99.90;;;;;;5098179;28;20266;-60
2023/01/06 04:49:36;;;;;;;1.13;0.83;;;11.10;99.90;;;;;;5095191;28;20221;-60
2023/01/06 04:52:04;;;;;;;4.50;1.20;;;11.00;99.90;;;;;;5097886;28;20233;-60
2023/01/06 04:54:31;;;;;;;1.00;0.77;;;11.10;99.90;;;;;;5096174;28;20210;-61
2023/01/06 04:56:57;;;;;;;1.23;0.87;;;11.10;99.90;;;;;;5076873;28;20281;-62
2023/01/06 04:59:24;;;;;;;3.07;1.07;;;11.10;99.90;;;;;;5085069;28;20209;-60
2023/01/06 05:01:51;;;;;;;0.87;0.70;;;11.10;99.90;;;;;;5086670;28;20289;-60
2023/01/06 05:04:18;;;;;;;0.73;0.63;;;11.10;99.90;;;;;;5089633;28;20229;-60
2023/01/06 05:06:45;;;;;;;1.20;0.70;;;11.10;99.90;;;;;;5069335;28;20293;-61
2023/01/06 05:09:11;;;;;;;1.37;0.60;;;11.10;99.90;;;;;;5069092;28;20218;-60
2023/01/06 05:11:39;;;;;;;0.63;0.50;;;11.10;99.90;;;;;;5091611;28;20222;-60
2023/01/06 05:14:06;;;;;;;2.47;0.57;;;11.10;99.90;;;;;;5093045;28;20811;-60
2023/01/06 05:16:34;;;;;;;2.30;0.60;;;11.10;99.90;;;;;;5090123;28;20245;-63
2023/01/06 05:19:01;;;;;;;4.57;0.80;;;11.10;99.90;;;;;;5057689;28;20611;-61
2023/01/06 05:21:29;;;;;;;1.20;0.70;;;11.10;99.90;;;;;;5087490;28;20572;-65
2023/01/06 05:23:58;;;;;;;2.53;0.60;;;11.10;99.90;;;;;;5088388;28;20202;-60
2023/01/06 05:26:26;;;;;;;2.57;0.80;;;11.10;99.90;;;;;;5090120;28;20244;-60
2023/01/06 05:28:54;;;;;;;2.33;0.50;;;11.10;99.90;;;;;;5090187;28;20782;-60
2023/01/06 05:31:21;;;;;;;1.63;0.30;;;11.10;99.90;;;;;;5089534;28;20581;-59
2023/01/06 05:33:48;;;;;;;0.90;0.50;;;11.10;99.90;;;;;;5061082;28;20307;-62
2023/01/06 05:36:17;;;;;;;1.37;0.80;;;11.10;99.90;;;;;;5087518;28;20202;-60
2023/01/06 05:38:49;;;;;;;1.30;0.50;;;11.10;99.90;;;;;;5084203;28;20250;-60
2023/01/06 05:41:16;;;;;;;1.03;0.40;;;11.10;99.90;;;;;;5088198;28;20195;-62
2023/01/06 05:43:43;;;;;;;1.23;0.80;;;11.10;99.90;;;;;;5088096;28;20237;-61
2023/01/06 05:46:10;;;;;;;4.10;0.60;;;11.10;99.90;;;;;;5054857;28;20279;-61
2023/01/06 05:48:38;;;;;;;3.70;0.80;;;11.10;99.90;;;;;;5063489;28;20209;-61
2023/01/06 05:51:13;;;;;;;0.90;0.67;;;11.10;99.90;;;;;;5065588;28;20215;-61
2023/01/06 05:53:42;;;;;;;2.17;0.70;;;11.10;99.90;;;;;;5067784;28;20201;-63
2023/01/06 05:56:11;;;;;;;0.80;0.60;;;11.20;99.90;;;;;;5066740;28;21181;-62
2023/01/06 05:58:39;;;;;;;1.57;0.63;;;11.20;99.90;;;;;;5074399;28;20870;-60
2023/01/06 06:01:23;;;;;;;1.37;0.67;;;11.20;99.90;;;;;;5077242;28;20295;-60
2023/01/06 06:03:51;;;;;;;2.43;0.77;;;11.10;99.90;;;;;;5066949;28;20622;-60
2023/01/06 06:06:20;;;;;;;3.40;0.90;;;11.00;99.90;;;;;;5048644;28;20199;-61
2023/01/06 06:08:47;;;;;;;1.17;0.70;;;11.00;99.90;;;;;;5065607;28;20310;-63
2023/01/06 06:11:18;;;;;;;3.57;0.90;;;11.00;99.90;;;;;;5068605;28;20220;-61
2023/01/06 06:13:55;;;;;;;1.77;0.93;;;11.00;99.90;;;;;;5069031;28;20310;-60
2023/01/06 06:16:24;;;;;;;1.93;0.80;;;10.90;99.90;;;;;;5060734;28;20202;-60
2023/01/06 06:18:53;;;;;;;1.17;0.73;;;11.00;99.90;;;;;;5043927;28;20197;-60
2023/01/06 06:21:22;;;;;;;2.53;0.93;;;11.00;99.90;;;;;;5077745;28;20206;-60
2023/01/06 06:23:51;;;;;;;1.73;0.70;;;11.00;99.90;;;;;;5076761;28;20675;-62
2023/01/06 06:26:17;;;;;;;1.47;1.00;;;11.00;99.90;;;;;;5077906;28;20201;-60
2023/01/06 06:28:44;;;;;;;1.07;0.80;;;11.00;99.90;;;;;;5077167;28;20256;-60
2023/01/06 06:31:15;;;;;;;0.53;0.53;;;11.00;99.90;;;;;;5078125;28;20308;-60
2023/01/06 06:33:42;;;;;;;1.03;0.83;;;11.00;99.90;;;;;;5078136;28;20206;-60
2023/01/06 06:36:15;;;;;;;1.90;0.70;;;11.10;99.90;;;;;;5078557;28;20199;-60
2023/01/06 06:38:44;;;;;;;1.87;0.70;;;11.00;99.90;;;;;;5072607;28;20566;-60
2023/01/06 06:41:11;;;;;;;1.30;0.83;;;11.00;99.90;;;;;;5079433;28;20261;-59
2023/01/06 06:43:39;;;;;;;12.80;1.60;;;10.90;99.90;;;;;;5075786;28;20625;-60
2023/01/06 06:46:06;;;;;;;1.17;0.70;;;10.80;99.90;;;;;;5092284;28;20240;-59
2023/01/06 06:48:33;;;;;;;2.20;1.20;;;10.70;99.90;;;;;;5095780;28;20237;-61
2023/01/06 06:51:06;;;;;;;1.40;1.10;;;10.70;99.90;;;;;;5097733;28;20216;-60
2023/01/06 06:53:34;;;;;;;1.20;1.10;;;10.70;99.90;;;;;;5091914;28;20651;-63
2023/01/06 06:56:03;;;;;;;1.33;1.07;;;10.70;99.90;;;;;;5059753;28;20198;-61
2023/01/06 06:58:31;;;;;;;1.30;1.20;;;10.70;99.90;;;;;;5074703;28;20200;-61
2023/01/06 07:00:58;;;;;;;1.20;1.10;;;10.70;99.90;;;;;;5057277;28;20204;-62
2023/01/06 07:03:24;;;;;;;2.13;1.20;;;10.70;99.90;;;;;;5080099;28;20235;-61
2023/01/06 07:05:52;;;;;;;1.20;0.97;;;10.60;99.90;;;;;;5099213;28;20263;-61
2023/01/06 07:08:19;;;;;;;2.80;2.37;;;10.60;99.90;;;;;;5098167;28;20200;-61
2023/01/06 07:10:46;;;;;;;3.67;1.53;;;10.50;99.90;;;;;;5079529;28;20287;-60
2023/01/06 07:13:12;;;;;;;1.33;1.23;;;10.50;99.90;;;;;;5099759;28;20560;-61
2023/01/06 07:15:39;;;;;;;1.77;1.30;;;10.50;99.90;;;;;;5097170;28;20222;-61
2023/01/06 07:18:06;;;;;;;1.57;1.20;;;10.50;99.90;;;;;;5099683;28;20259;-63
2023/01/06 07:20:35;;;;;;;1.87;1.63;;;10.50;99.90;;;;;;5080289;28;20231;-60
2023/01/06 07:23:03;;;;;;;1.83;1.50;;;10.50;99.90;;;;;;5099351;28;20209;-61
2023/01/06 07:25:30;;;;;;;3.03;1.70;;;10.40;99.90;;;;;;5082702;28;20230;-62
2023/01/06 07:27:59;;;;;;;2.23;1.80;;;10.50;99.90;;;;;;5075907;28;20209;-61
2023/01/06 07:30:26;;;;;;;2.70;1.77;;;10.50;99.90;;;;;;5095539;28;20976;-62
2023/01/06 07:32:53;;;;;;;4.07;2.00;;;10.50;99.90;;;;;;5094909;28;20210;-59
2023/01/06 07:35:20;;;;;;;2.60;2.17;;;10.50;99.90;;;;;;4729237;28;10000405;-63
2023/01/06 07:37:47;;;;;;;2.73;2.20;;;10.40;99.90;;;;;;5069025;28;20251;-61
2023/01/06 07:40:16;;;;;;;3.33;2.27;;;10.40;99.90;;;;;;5087668;28;20663;-61
2023/01/06 07:42:43;;;;;;;3.60;2.33;;;10.40;99.90;;;;;;5094262;28;20330;-60
2023/01/06 07:45:11;;;;;;;2.60;2.40;;;10.40;99.90;;;;;;5098794;28;20247;-59
2023/01/06 07:47:37;;;;;;;3.00;2.43;;;10.40;99.90;;;;;;5092069;28;21042;-61
2023/01/06 07:50:05;;;;;;;2.93;2.67;;;10.40;99.90;;;;;;5096174;28;20221;-60
2023/01/06 07:52:32;;;;;;;5.43;2.70;;;10.40;99.90;;;;;;5091668;28;20618;-59
2023/01/06 07:54:59;;;;;;;4.00;2.37;;;10.40;99.90;;;;;;5097715;28;20199;-60
2023/01/06 07:57:27;;;;;;;4.17;2.97;;;10.30;99.90;;;;;;5093665;28;21055;-60
2023/01/06 07:59:54;;;;;;;3.70;3.40;;;10.40;99.90;;;;;;5093526;28;21416;-61
2023/01/06 08:02:22;;;;;;;7.50;3.37;;;10.40;99.90;;;;;;5089700;28;20301;-60
2023/01/06 08:04:49;;;;;;;3.30;3.00;;;10.40;99.90;;;;;;5095591;28;20199;-61
2023/01/06 08:07:16;;;;;;;3.60;3.03;;;10.40;99.90;;;;;;5096744;28;20685;-61
2023/01/06 08:09:43;;;;;;;3.67;3.27;;;10.40;99.90;;;;;;5075084;28;20212;-61
2023/01/06 08:12:11;;;;;;;3.30;3.00;;;10.40;99.90;;;;;;5075839;28;20264;-60
2023/01/06 08:14:37;;;;;;;3.80;3.30;;;10.40;99.90;;;;;;5063204;28;20209;-62
2023/01/06 08:17:05;;;;;;;4.03;3.27;;;10.40;99.90;;;;;;5092842;28;20220;-63
2023/01/06 08:19:32;;;;;;;3.37;3.00;;;10.50;99.90;;;;;;5088105;28;20636;-61
2023/01/06 08:21:58;;;;;;;4.17;2.87;;;10.50;99.90;;;;;;5088055;28;20268;-61
2023/01/06 08:24:25;;;;;;;4.93;3.47;;;10.50;99.90;;;;;;5082535;28;20686;-61
2023/01/06 08:26:52;;;;;;;3.30;3.00;;;10.60;99.90;;;;;;5092017;28;20256;-60
2023/01/06 08:29:19;;;;;;;4.80;2.83;;;10.60;99.90;;;;;;5080052;28;20211;-61
2023/01/06 08:31:46;;;;;;;4.50;2.90;;;10.60;99.90;;;;;;5085844;28;20213;-61
2023/01/06 08:34:13;;;;;;;4.63;3.20;;;10.70;99.90;;;;;;5090505;28;20640;-60
2023/01/06 08:36:42;;;;;;;4.30;3.00;;;10.70;99.90;;;;;;5085863;28;21336;-61
2023/01/06 08:39:09;;;;;;;4.03;3.07;;;10.80;99.90;;;;;;5085248;28;20766;-60
2023/01/06 08:41:36;;;;;;;3.53;3.17;;;10.80;99.90;;;;;;5087160;28;20838;-60
2023/01/06 08:44:03;;;;;;;5.03;3.47;;;10.90;99.90;;;;;;5076140;28;20204;-62
2023/01/06 08:46:30;;;;;;;3.80;3.50;;;11.00;99.90;;;;;;5076043;28;20254;-60
2023/01/06 08:48:57;;;;;;;6.53;3.67;;;11.10;99.90;;;;;;5082923;28;20651;-62
2023/01/06 08:51:24;;;;;;;3.53;2.83;;;11.20;99.90;;;;;;5089534;28;22574;-63
2023/01/06 08:53:51;;;;;;;4.83;2.80;;;11.20;99.90;;;;;;5066642;28;20313;-59
2023/01/06 08:56:30;;;;;;;2.70;2.37;;;11.10;99.90;;;;;;5083822;28;20198;-61
2023/01/06 08:59:00;;;;;;;5.00;2.30;;;11.10;99.90;;;;;;5092080;28;20229;-61
2023/01/06 09:01:33;;;;;;;6.30;2.47;;;11.10;99.90;;;;;;5089849;28;20213;-62
2023/01/06 09:04:02;;;;;;;2.63;2.20;;;11.00;99.90;;;;;;5087314;28;20323;-62
2023/01/06 09:06:29;;;;;;;2.60;1.73;;;11.00;99.90;;;;;;5092035;28;20824;-62
2023/01/06 09:08:56;;;;;;;4.47;2.00;;;11.10;99.90;;;;;;5070309;28;20289;-64
2023/01/06 09:11:23;;;;;;;2.17;1.77;;;11.10;99.90;;;;;;5079474;28;20238;-64
2023/01/06 09:13:50;;;;;;;4.13;1.93;;;11.10;99.90;;;;;;5086659;28;20599;-63
2023/01/06 09:16:18;;;;;;;3.33;1.60;;;11.10;99.90;;;;;;5079173;28;20676;-61
2023/01/06 09:18:49;;;;;;;4.33;1.70;;;11.10;99.90;;;;;;5080886;28;20190;-64
2023/01/06 09:21:21;;;;;;;2.60;1.80;;;11.20;99.90;;;;;;5079104;28;20208;-61
2023/01/06 09:23:48;;;;;;;4.57;1.60;;;11.20;99.90;;;;;;5084243;28;20586;-61
2023/01/06 09:26:16;;;;;;;3.70;1.60;;;11.20;99.90;;;;;;5088141;28;20665;-62
2023/01/06 09:28:43;;;;;;;3.30;2.03;;;11.20;99.90;;;;;;5095426;28;20296;-64
2023/01/06 09:31:10;;;;;;;4.83;1.47;;;11.20;99.90;;;;;;5097737;28;20209;-64
2023/01/06 09:33:38;;;;;;;3.33;1.37;;;11.20;99.90;;;;;;5095774;28;20232;-63
2023/01/06 09:36:06;;;;;;;2.83;1.00;;;11.20;99.90;;;;;;5093130;28;20594;-62
2023/01/06 09:38:32;;;;;;;2.00;1.30;;;11.10;99.90;;;;;;5095466;28;20286;-63
2023/01/06 09:41:05;;;;;;;2.33;1.20;;;11.10;99.90;;;;;;5097801;28;20546;-61
2023/01/06 09:43:44;;;;;;;1.00;0.80;;;11.10;99.90;;;;;;5095237;28;20202;-63
2023/01/06 09:46:16;;;;;;;1.70;1.00;;;11.00;99.90;;;;;;5096923;28;20238;-61
2023/01/06 09:48:55;;;;;;;1.90;1.00;;;11.00;99.90;;;;;;5079530;28;20201;-62
2023/01/06 09:51:25;;;;;;;4.27;1.07;;;11.00;99.90;;;;;;5075167;28;20612;-62
2023/01/06 09:53:58;;;;;;;1.43;0.70;;;11.00;99.90;;;;;;5095164;28;20225;-61
2023/01/06 09:56:25;;;;;;;3.60;1.10;;;11.00;99.90;;;;;;5093878;28;20733;-61
2023/01/06 09:59:04;;;;;;;4.17;1.60;;;11.00;99.90;;;;;;5096347;28;20230;-62
2023/01/06 10:01:38;;;;;;;2.53;0.80;;;11.00;99.90;;;;;;5094954;28;20285;-62
2023/01/06 10:04:05;;;;;;;1.90;1.00;;;11.00;99.90;;;;;;5096827;28;20201;-62
2023/01/06 10:06:36;;;;;;;2.73;0.87;;;10.90;99.90;;;;;;5094699;28;20270;-64
2023/01/06 10:09:12;;;;;;;3.00;0.70;;;10.90;99.90;;;;;;5092888;28;20244;-65
2023/01/06 10:12:11;;;;;;;2.27;0.70;;;10.80;99.90;;;;;;5089162;28;20228;-62
2023/01/06 10:14:58;;;;;;;2.90;0.73;;;11.00;99.90;;;;;;5088190;28;20292;-62
2023/01/06 10:17:47;;;;;;;1.60;0.90;;;11.10;99.90;;;;;;5078044;28;20243;-62
2023/01/06 10:20:26;;;;;;;2.50;0.80;;;11.60;99.90;;;;;;5066837;28;20210;-62
2023/01/06 10:23:16;;;;;;;2.53;0.70;;;12.00;99.90;;;;;;5074399;28;20215;-64
2023/01/06 10:25:50;;;;;;;3.53;0.90;;;12.00;99.90;;;;;;5071761;28;20214;-62
2023/01/06 10:28:28;;;;;;;4.67;1.37;;;12.20;99.90;;;;;;5055952;28;20210;-66
2023/01/06 10:31:00;;;;;;;2.13;0.90;;;12.20;99.90;;;;;;5080584;28;20231;-62
2023/01/06 10:33:31;;;;;;;2.53;0.60;;;12.40;99.90;;;;;;5081072;28;20570;-62
2023/01/06 10:35:59;;;;;;;2.60;0.73;;;12.30;99.90;;;;;;5083207;28;20262;-63
2023/01/06 10:38:52;;;;;;;2.30;0.70;;;12.40;99.90;;;;;;5082874;28;20215;-63
2023/01/06 10:41:50;;;;;;;4.87;0.73;;;12.60;99.90;;;;;;5079464;28;20219;-63
2023/01/06 10:44:18;;;;;;;3.60;0.90;;;12.50;99.90;;;;;;5047085;28;20733;-63
2023/01/06 10:46:47;;;;;;;2.13;1.00;;;12.40;99.90;;;;;;5081096;28;20248;-65
2023/01/06 10:49:17;;;;;;;6.40;1.00;;;12.40;99.90;;;;;;5078819;28;20222;-64
2023/01/06 10:51:53;;;;;;;4.30;1.10;;;12.50;99.90;;;;;;5079336;28;20215;-63
2023/01/06 10:54:26;;;;;;;5.93;1.23;;;12.60;99.90;;;;;;5080348;28;20204;-66
2023/01/06 10:57:02;;;;;;;5.03;1.20;;;12.70;99.90;;;;;;5080124;28;20194;-63
2023/01/06 10:59:32;;;;;;;2.80;0.90;;;12.60;99.90;;;;;;5080774;28;20204;-62
2023/01/06 11:01:59;;;;;;;2.70;1.20;;;13.00;99.90;;;;;;5083488;28;21175;-62
2023/01/06 11:04:26;;;;;;;2.27;1.50;;;12.80;99.90;;;;;;5079086;28;20260;-63
2023/01/06 11:07:00;;;;;;;3.07;1.30;;;12.60;99.90;;;;;;5073988;28;20204;-63
2023/01/06 11:09:37;;;;;;;3.37;1.03;;;12.60;99.90;;;;;;5080834;28;20725;-63
2023/01/06 11:12:24;;;;;;;5.17;1.10;;;12.60;99.90;;;;;;5082098;28;20247;-63
2023/01/06 11:14:59;;;;;;;5.53;1.33;;;12.90;99.90;;;;;;5080343;28;20320;-62
2023/01/06 11:17:28;;;;;;;2.20;0.80;;;12.70;99.90;;;;;;5080404;28;20778;-64
2023/01/06 11:20:29;;;;;;;2.03;0.83;;;12.50;99.90;;;;;;5058773;28;20204;-63
2023/01/06 11:23:21;;;;;;;2.57;1.10;;;12.30;99.90;;;;;;5034063;28;20296;-62
2023/01/06 11:26:26;;;;;;;3.90;1.80;;;12.40;99.90;;;;;;5082956;28;20579;-62
2023/01/06 11:28:54;;;;;;;3.07;0.73;;;12.40;99.90;;;;;;5076793;28;20320;-63
2023/01/06 11:31:26;;;;;;;1.27;0.70;;;12.50;99.90;;;;;;5085188;28;20324;-64
2023/01/06 11:33:55;;;;;;;3.33;0.97;;;12.70;99.90;;;;;;5061115;28;20206;-62
2023/01/06 11:36:26;;;;;;;2.60;0.80;;;12.80;99.90;;;;;;5074603;28;20732;-63
2023/01/06 11:39:25;;;;;;;1.53;1.00;;;12.70;99.90;;;;;;5058696;28;20210;-65
2023/01/06 11:41:54;;;;;;;6.03;1.23;;;12.90;99.90;;;;;;5062506;28;20201;-66
2023/01/06 11:44:27;;;;;;;2.77;0.70;;;13.00;99.90;;;;;;5082675;28;20555;-62
2023/01/06 11:47:15;;;;;;;5.17;0.90;;;13.10;99.90;;;;;;5082419;28;20234;-65
2023/01/06 11:49:47;;;;;;;3.27;0.97;;;13.10;99.90;;;;;;5080518;28;20261;-64
2023/01/06 11:52:25;;;;;;;4.53;0.70;;;13.30;99.90;;;;;;5083223;28;20892;-63
2023/01/06 11:55:08;;;;;;;5.63;0.80;;;13.80;99.90;;;;;;5079720;28;20229;-62
2023/01/06 11:57:53;;;;;;;3.70;0.90;;;13.60;99.90;;;;;;5080989;28;20202;-63
2023/01/06 12:00:55;;;;;;;6.67;0.80;;;13.40;99.90;;;;;;5080643;28;20292;-63
2023/01/06 12:03:31;;;;;;;2.60;1.10;;;13.50;99.90;;;;;;5078213;28;20251;-63
2023/01/06 12:06:38;;;;;;;2.10;0.80;;;13.40;99.90;;;;;;5081524;28;20213;-62
2023/01/06 12:09:25;;;;;;;4.33;0.70;;;14.10;99.90;;;;;;4955637;28;20222;-63
2023/01/06 12:11:54;;;;;;;3.90;0.77;;;14.00;99.90;;;;;;4979641;28;20646;-64
2023/01/06 12:14:26;;;;;;;2.77;0.60;;;14.00;99.90;;;;;;4977292;28;20618;-64
2023/01/06 12:17:11;;;;;;;1.70;0.60;;;13.80;99.90;;;;;;4960171;28;20204;-63
2023/01/06 12:19:41;;;;;;;3.97;1.17;;;14.00;99.90;;;;;;4973322;28;20224;-64
2023/01/06 12:22:39;;;;;;;3.40;1.40;;;13.40;99.90;;;;;;4973629;28;20758;-64
2023/01/06 12:25:18;;;;;;;3.10;0.60;;;13.60;99.90;;;;;;4956749;28;20335;-64
2023/01/06 12:27:53;;;;;;;4.03;0.60;;;13.60;99.90;;;;;;4977512;28;20235;-63
2023/01/06 12:30:30;;;;;;;5.07;0.80;;;13.80;99.90;;;;;;4969298;28;20231;-64
2023/01/06 12:33:04;;;;;;;7.63;0.90;;;13.70;99.90;;;;;;4976828;28;20201;-63
2023/01/06 12:35:34;;;;;;;3.57;0.73;;;13.50;99.90;;;;;;4959239;28;20237;-70
2023/01/06 12:38:24;;;;;;;3.60;0.80;;;13.70;99.90;;;;;;4971239;28;20227;-64
2023/01/06 12:41:31;;;;;;;3.47;0.90;;;14.20;99.90;;;;;;4977618;28;20236;-64
2023/01/06 12:44:04;;;;;;;2.97;0.77;;;14.30;99.90;;;;;;5058552;28;20570;-64
2023/01/06 12:46:41;;;;;;;4.60;0.97;;;14.50;99.90;;;;;;5081003;28;20384;-65
2023/01/06 12:49:21;;;;;;;5.47;1.10;;;14.90;99.90;;;;;;5058102;28;20231;-64
2023/01/06 12:51:54;;;;;;;1.50;0.70;;;15.10;99.90;;;;;;5081064;28;20212;-71
2023/01/06 12:54:29;;;;;;;2.33;0.90;;;15.00;99.90;;;;;;5085911;28;20209;-64
2023/01/06 12:57:20;;;;;;;6.60;1.67;;;14.60;99.90;;;;;;5076855;28;20214;-65
2023/01/06 13:00:00;;;;;;;5.90;1.40;;;14.30;99.90;;;;;;5063846;28;20708;-64
2023/01/06 13:02:30;;;;;;;2.23;1.20;;;14.00;99.90;;;;;;5081205;28;20195;-65
2023/01/06 13:05:24;;;;;;;4.33;1.07;;;13.80;99.90;;;;;;5054773;28;20216;-64
2023/01/06 13:08:09;;;;;;;4.73;1.50;;;14.00;99.90;;;;;;5082544;28;20203;-63
2023/01/06 13:10:47;;;;;;;4.47;1.20;;;13.90;99.90;;;;;;5078509;28;20534;-63
2023/01/06 13:13:48;;;;;;;3.80;1.10;;;13.90;99.90;;;;;;5082500;28;20221;-64
2023/01/06 13:17:00;;;;;;;2.47;1.00;;;14.30;99.90;;;;;;5085166;28;20204;-65